Time;durP1;ratioP1;P1;durP2;ratioP2;P2;SDS_P1;SDS_P2;PMS_P1;PMS_P2;Temp;Humidity;BMP_temperature;BMP_pressure;BME280_temperature;BME280_humidity;BME280_pressure;Samples;Min_cycle;Max_cycle;Signal;HPM_P1;HPM_P2
2023/06/03 00:02:29;;;;;;;;;;;;;;;;;;4934280;29;19920;-78
2023/06/03 00:05:17;;;;;;;;;;;;;;;;;;4930256;28;19919;-77
2023/06/03 00:08:04;;;;;;;;;;;;;;;;;;4921823;29;19927;-78
2023/06/03 00:10:50;;;;;;;;;;;;;;;;;;4935788;29;20501;-77
2023/06/03 00:13:37;;;;;;;;;;;;;;;;;;4938748;29;19929;-79
2023/06/03 00:16:23;;;;;;;;;;;;;;;;;;4927129;29;19969;-78
2023/06/03 00:19:14;;;;;;;;;;;;;;;;;;4931229;28;19930;-78
2023/06/03 00:22:02;;;;;;;;;;;;;;;;;;4923429;29;19923;-78
2023/06/03 00:24:48;;;;;;;;;;;;;;;;;;4919579;29;19933;-80
2023/06/03 00:27:35;;;;;;;;;;;;;;;;;;4951565;28;19941;-79
2023/06/03 00:30:21;;;;;;;;;;;;;;;;;;4939674;28;19965;-80
2023/06/03 00:33:08;;;;;;;;;;;;;;;;;;4932360;28;19926;-80
2023/06/03 00:35:54;;;;;;;;;;;;;;;;;;4937879;28;19918;-81
2023/06/03 00:38:41;;;;;;;;;;;;;;;;;;4942651;28;20305;-81
2023/06/03 00:41:27;;;;;;;;;;;;;;;;;;4941391;29;19919;-81
2023/06/03 00:44:14;;;;;;;;;;;;;;;;;;4945450;28;19929;-81
2023/06/03 00:47:00;;;;;;;;;;;;;;;;;;4934667;28;19923;-80
2023/06/03 00:49:47;;;;;;;;;;;;;;;;;;4924387;28;19931;-79
2023/06/03 00:52:33;;;;;;;;;;;;;;;;;;4917581;29;19926;-80
2023/06/03 00:55:20;;;;;;;;;;;;;;;;;;4927937;29;19923;-79
2023/06/03 00:58:06;;;;;;;;;;;;;;;;;;4928237;29;19919;-80
2023/06/03 01:00:53;;;;;;;;;;;;;;;;;;4924758;28;19919;-80
2023/06/03 01:03:42;;;;;;;;;;;;;;;;;;4923746;29;20299;-80
2023/06/03 01:06:28;;;;;;;;;;;;;;;;;;4920782;29;19925;-80
2023/06/03 01:09:15;;;;;;;;;;;;;;;;;;4915360;29;20362;-79
2023/06/03 01:12:01;;;;;;;;;;;;;;;;;;4925761;29;19930;-80
2023/06/03 01:14:48;;;;;;;;;;;;;;;;;;4937663;28;19928;-79
2023/06/03 01:17:35;;;;;;;;;;;;;;;;;;4919369;29;19931;-79
2023/06/03 01:20:26;;;;;;;;;;;;;;;;;;4926195;29;19929;-79
2023/06/03 01:23:13;;;;;;;;;;;;;;;;;;4917830;28;19933;-80
2023/06/03 01:26:00;;;;;;;;;;;;;;;;;;4928169;29;19938;-80
2023/06/03 01:28:49;;;;;;;;;;;;;;;;;;4919308;29;19931;-79
2023/06/03 01:31:35;;;;;;;;;;;;;;;;;;4935448;29;19918;-79
2023/06/03 01:34:22;;;;;;;;;;;;;;;;;;4941269;28;19922;-80
2023/06/03 01:37:08;;;;;;;;;;;;;;;;;;4939394;29;19921;-80
2023/06/03 01:39:55;;;;;;;;;;;;;;;;;;4946573;28;19918;-79
2023/06/03 01:42:41;;;;;;;;;;;;;;;;;;4946679;29;19918;-80
2023/06/03 01:45:28;;;;;;;;;;;;;;;;;;4942405;28;19918;-80
2023/06/03 01:48:15;;;;;;;;;;;;;;;;;;4920877;29;19923;-79
2023/06/03 01:51:01;;;;;;;;;;;;;;;;;;4920826;29;19923;-80
2023/06/03 01:53:48;;;;;;;;;;;;;;;;;;4920627;28;19919;-80
2023/06/03 01:56:34;;;;;;;;;;;;;;;;;;4920300;29;25057;-79
2023/06/03 01:59:24;;;;;;;;;;;;;;;;;;4939596;29;19926;-80
2023/06/03 02:02:10;;;;;;;;;;;;;;;;;;4923258;29;19925;-80
2023/06/03 02:04:57;;;;;;;;;;;;;;;;;;4927032;28;19922;-80
2023/06/03 02:07:43;;;;;;;;;;;;;;;;;;4932980;28;20389;-80
2023/06/03 02:10:30;;;;;;;;;;;;;;;;;;4932429;29;20417;-79
2023/06/03 02:13:16;;;;;;;;;;;;;;;;;;4923448;29;19941;-79
2023/06/03 02:16:03;;;;;;;;;;;;;;;;;;4912810;29;19925;-79
2023/06/03 02:18:51;;;;;;;;;;;;;;;;;;4933151;28;19923;-79
2023/06/03 02:21:38;;;;;;;;;;;;;;;;;;4914750;29;19934;-80
2023/06/03 02:24:28;;;;;;;;;;;;;;;;;;4915039;29;19923;-79
2023/06/03 02:27:15;;;;;;;;;;;;;;;;;;4938555;29;20297;-79
2023/06/03 02:30:01;;;;;;;;;;;;;;;;;;4927688;28;19933;-80
2023/06/03 02:32:48;;;;;;;;;;;;;;;;;;4941780;29;20366;-81
2023/06/03 02:35:34;;;;;;;;;;;;;;;;;;4944959;29;20376;-81
2023/06/03 02:38:21;;;;;;;;;;;;;;;;;;4942888;29;19929;-80
2023/06/03 02:41:07;;;;;;;;;;;;;;;;;;4932524;29;20274;-79
2023/06/03 02:43:54;;;;;;;;;;;;;;;;;;4938736;29;19926;-79
2023/06/03 02:46:40;;;;;;;;;;;;;;;;;;4941275;28;19918;-79
2023/06/03 02:49:27;;;;;;;;;;;;;;;;;;4927207;29;19927;-79
2023/06/03 02:52:13;;;;;;;;;;;;;;;;;;4937565;29;19918;-79
2023/06/03 02:55:00;;;;;;;;;;;;;;;;;;4938996;28;19919;-79
2023/06/03 02:57:46;;;;;;;;;;;;;;;;;;4925599;29;19941;-79
2023/06/03 03:00:33;;;;;;;;;;;;;;;;;;4935877;29;19922;-81
2023/06/03 03:03:19;;;;;;;;;;;;;;;;;;4940369;29;19914;-80
2023/06/03 03:06:11;;;;;;;;;;;;;;;;;;4941697;29;19962;-81
2023/06/03 03:08:58;;;;;;;;;;;;;;;;;;4940914;28;20366;-82
2023/06/03 03:11:44;;;;;;;;;;;;;;;;;;4936235;28;20309;-81
2023/06/03 03:14:31;;;;;;;;;;;;;;;;;;4933324;29;19915;-81
2023/06/03 03:17:17;;;;;;;;;;;;;;;;;;4932691;29;20244;-82
2023/06/03 03:20:03;;;;;;;;;;;;;;;;;;4933815;29;19922;-81
2023/06/03 03:22:50;;;;;;;;;;;;;;;;;;4932736;29;19914;-81
2023/06/03 03:25:36;;;;;;;;;;;;;;;;;;4932860;29;19923;-80
2023/06/03 03:28:23;;;;;;;;;;;;;;;;;;4932662;29;19937;-80
2023/06/03 03:31:11;;;;;;;;;;;;;;;;;;4933574;29;19923;-79
2023/06/03 03:33:57;;;;;;;;;;;;;;;;;;4924854;29;19915;-79
2023/06/03 03:36:46;;;;;;;;;;;;;;;;;;4931797;29;19937;-79
2023/06/03 03:39:32;;;;;;;;;;;;;;;;;;4932457;29;19948;-80
2023/06/03 03:42:18;;;;;;;;;;;;;;;;;;4932691;29;19915;-79
2023/06/03 03:45:05;;;;;;;;;;;;;;;;;;4933283;29;19922;-80
2023/06/03 03:47:51;;;;;;;;;;;;;;;;;;4932040;29;19926;-84
2023/06/03 03:50:38;;;;;;;;;;;;;;;;;;4912465;29;20377;-79
2023/06/03 03:53:24;;;;;;;;;;;;;;;;;;4924644;29;19923;-79
2023/06/03 03:56:12;;;;;;;;;;;;;;;;;;4923146;29;19922;-79
2023/06/03 03:58:58;;;;;;;;;;;;;;;;;;4916773;29;19919;-79
2023/06/03 04:01:45;;;;;;;;;;;;;;;;;;4918976;29;19945;-78
2023/06/03 04:04:31;;;;;;;;;;;;;;;;;;4920149;29;20141;-79
2023/06/03 04:07:20;;;;;;;;;;;;;;;;;;4920291;28;19923;-79
2023/06/03 04:10:08;;;;;;;;;;;;;;;;;;4925572;28;19937;-79
2023/06/03 04:12:55;;;;;;;;;;;;;;;;;;4919201;29;19923;-79
2023/06/03 04:15:41;;;;;;;;;;;;;;;;;;4915629;29;19919;-79
2023/06/03 04:18:28;;;;;;;;;;;;;;;;;;4921476;29;19930;-80
2023/06/03 04:21:14;;;;;;;;;;;;;;;;;;4921438;29;20600;-79
2023/06/03 04:24:01;;;;;;;;;;;;;;;;;;4933606;28;19923;-79
2023/06/03 04:26:49;;;;;;;;;;;;;;;;;;4902236;29;19934;-80
2023/06/03 04:29:36;;;;;;;;;;;;;;;;;;4909449;29;20302;-80
2023/06/03 04:32:22;;;;;;;;;;;;;;;;;;4900204;29;19937;-80
2023/06/03 04:35:09;;;;;;;;;;;;;;;;;;4920471;29;19919;-81
2023/06/03 04:37:55;;;;;;;;;;;;;;;;;;4915020;29;19929;-80
2023/06/03 04:40:46;;;;;;;;;;;;;;;;;;4915904;29;20924;-81
2023/06/03 04:43:33;;;;;;;;;;;;;;;;;;4919058;29;19934;-81
2023/06/03 04:46:21;;;;;;;;;;;;;;;;;;4927631;29;19926;-80
2023/06/03 04:49:10;;;;;;;;;;;;;;;;;;4925241;29;21127;-80
2023/06/03 04:51:56;;;;;;;;;;;;;;;;;;4920947;29;20056;-80
2023/06/03 04:54:43;;;;;;;;;;;;;;;;;;4911495;29;19923;-80
2023/06/03 04:57:30;;;;;;;;;;;;;;;;;;4906250;29;19920;-81
2023/06/03 05:00:18;;;;;;;;;;;;;;;;;;4906341;29;19923;-80
2023/06/03 05:03:08;;;;;;;;;;;;;;;;;;4909751;29;20304;-81
2023/06/03 05:05:55;;;;;;;;;;;;;;;;;;4907289;29;19952;-82
2023/06/03 05:08:41;;;;;;;;;;;;;;;;;;4912363;29;19927;-82
2023/06/03 05:11:28;;;;;;;;;;;;;;;;;;4918895;29;20310;-82
2023/06/03 05:14:14;;;;;;;;;;;;;;;;;;4897781;29;19930;-82
2023/06/03 05:17:01;;;;;;;;;;;;;;;;;;4899137;29;19936;-80
2023/06/03 05:19:47;;;;;;;;;;;;;;;;;;4902798;29;19935;-80
2023/06/03 05:22:34;;;;;;;;;;;;;;;;;;4925629;29;19923;-80
2023/06/03 05:25:20;;;;;;;;;;;;;;;;;;4925284;29;19929;-80
2023/06/03 05:28:07;;;;;;;;;;;;;;;;;;4942300;29;19923;-80
2023/06/03 05:30:53;;;;;;;;;;;;;;;;;;4947223;28;19942;-80
2023/06/03 05:33:41;;;;;;;;;;;;;;;;;;4937319;28;19929;-80
2023/06/03 05:36:27;;;;;;;;;;;;;;;;;;4929751;28;19944;-81
2023/06/03 05:39:14;;;;;;;;;;;;;;;;;;4944476;29;19914;-82
2023/06/03 05:42:00;;;;;;;;;;;;;;;;;;4941578;28;19926;-80
2023/06/03 05:44:47;;;;;;;;;;;;;;;;;;4941699;29;19918;-80
2023/06/03 05:47:33;;;;;;;;;;;;;;;;;;4945704;28;19922;-81
2023/06/03 05:50:20;;;;;;;;;;;;;;;;;;4939622;29;19931;-82
2023/06/03 05:53:06;;;;;;;;;;;;;;;;;;4939265;28;19930;-81
2023/06/03 05:55:53;;;;;;;;;;;;;;;;;;4946084;28;19930;-81
2023/06/03 05:58:40;;;;;;;;;;;;;;;;;;4931406;28;19926;-78
2023/06/03 06:01:27;;;;;;;;;;;;;;;;;;4939569;29;19919;-79
2023/06/03 06:04:13;;;;;;;;;;;;;;;;;;4935252;29;19934;-81
2023/06/03 06:07:00;;;;;;;;;;;;;;;;;;4936113;29;19923;-82
2023/06/03 06:09:46;;;;;;;;;;;;;;;;;;4941077;28;19930;-81
2023/06/03 06:12:32;;;;;;;;;;;;;;;;;;4936778;28;19923;-78
2023/06/03 06:15:19;;;;;;;;;;;;;;;;;;4943152;28;19926;-81
2023/06/03 06:18:06;;;;;;;;;;;;;;;;;;4936964;29;19934;-81
2023/06/03 06:20:52;;;;;;;;;;;;;;;;;;4928035;28;19918;-79
2023/06/03 06:23:39;;;;;;;;;;;;;;;;;;4940439;28;19922;-78
2023/06/03 06:26:25;;;;;;;;;;;;;;;;;;4941158;28;19935;-79
2023/06/03 06:29:12;;;;;;;;;;;;;;;;;;4945599;28;19927;-79
2023/06/03 06:31:59;;;;;;;;;;;;;;;;;;4942986;28;20002;-79
2023/06/03 06:34:46;;;;;;;;;;;;;;;;;;4941476;29;20297;-80
2023/06/03 06:37:32;;;;;;;;;;;;;;;;;;4937765;29;19923;-80
2023/06/03 06:40:19;;;;;;;;;;;;;;;;;;4935546;28;19922;-79
2023/06/03 06:43:05;;;;;;;;;;;;;;;;;;4930461;28;19918;-79
2023/06/03 06:45:52;;;;;;;;;;;;;;;;;;4933510;29;20425;-80
2023/06/03 06:48:38;;;;;;;;;;;;;;;;;;4939943;28;19921;-80
2023/06/03 06:51:25;;;;;;;;;;;;;;;;;;4951991;28;19922;-79
2023/06/03 06:54:11;;;;;;;;;;;;;;;;;;4934366;29;19923;-79
2023/06/03 06:56:58;;;;;;;;;;;;;;;;;;4928988;29;19925;-79
2023/06/03 06:59:44;;;;;;;;;;;;;;;;;;4929014;29;19915;-80
2023/06/03 07:02:31;;;;;;;;;;;;;;;;;;4940787;29;19923;-79
2023/06/03 07:05:17;;;;;;;;;;;;;;;;;;4939196;28;19918;-80
2023/06/03 07:08:04;;;;;;;;;;;;;;;;;;4934229;28;19923;-80
2023/06/03 07:10:50;;;;;;;;;;;;;;;;;;4940672;28;19941;-81
2023/06/03 07:13:36;;;;;;;;;;;;;;;;;;4937240;28;19929;-81
2023/06/03 07:16:24;;;;;;;;;;;;;;;;;;4937471;29;19968;-83
2023/06/03 07:19:10;;;;;;;;;;;;;;;;;;4945360;28;19922;-82
2023/06/03 07:21:57;;;;;;;;;;;;;;;;;;4939777;29;19926;-80
2023/06/03 07:24:43;;;;;;;;;;;;;;;;;;4939111;28;19929;-81
2023/06/03 07:27:31;;;;;;;;;;;;;;;;;;4931203;29;19931;-81
2023/06/03 07:30:18;;;;;;;;;;;;;;;;;;4937560;29;20313;-80
2023/06/03 07:33:05;;;;;;;;;;;;;;;;;;4935392;28;19914;-80
2023/06/03 07:35:52;;;;;;;;;;;;;;;;;;4936812;29;19925;-80
2023/06/03 07:38:38;;;;;;;;;;;;;;;;;;4937186;28;19940;-81
2023/06/03 07:41:25;;;;;;;;;;;;;;;;;;4937926;29;19922;-80
2023/06/03 07:44:11;;;;;;;;;;;;;;;;;;4936316;29;19930;-82
2023/06/03 07:46:58;;;;;;;;;;;;;;;;;;4935402;28;19919;-81
2023/06/03 07:49:45;;;;;;;;;;;;;;;;;;4939185;28;19934;-82
2023/06/03 07:52:31;;;;;;;;;;;;;;;;;;4933737;28;19925;-80
2023/06/03 07:55:18;;;;;;;;;;;;;;;;;;4940697;28;19926;-81
2023/06/03 07:58:04;;;;;;;;;;;;;;;;;;4936796;29;19919;-81
2023/06/03 08:00:54;;;;;;;;;;;;;;;;;;4937151;28;19925;-82
2023/06/03 08:03:40;;;;;;;;;;;;;;;;;;4946196;29;20409;-82
2023/06/03 08:06:27;;;;;;;;;;;;;;;;;;4930783;29;19922;-82
2023/06/03 08:09:14;;;;;;;;;;;;;;;;;;4938970;28;19938;-80
2023/06/03 08:12:00;;;;;;;;;;;;;;;;;;4943944;29;19952;-79
2023/06/03 08:14:47;;;;;;;;;;;;;;;;;;4935815;28;19942;-88
2023/06/03 08:17:33;;;;;;;;;;;;;;;;;;4947009;28;19938;-88
2023/06/03 08:20:20;;;;;;;;;;;;;;;;;;4942079;29;19922;-89
2023/06/03 08:23:06;;;;;;;;;;;;;;;;;;4934703;28;19938;-88
2023/06/03 08:25:53;;;;;;;;;;;;;;;;;;4949457;28;19957;-88
2023/06/03 08:28:39;;;;;;;;;;;;;;;;;;4943119;29;19918;-87
2023/06/03 08:31:26;;;;;;;;;;;;;;;;;;4941349;29;19930;-87
2023/06/03 08:34:12;;;;;;;;;;;;;;;;;;4943477;28;19922;-90
2023/06/03 08:36:59;;;;;;;;;;;;;;;;;;4943643;28;19923;-80
2023/06/03 08:39:47;;;;;;;;;;;;;;;;;;4937667;29;19923;-78
2023/06/03 08:42:34;;;;;;;;;;;;;;;;;;4942573;29;20127;-78
2023/06/03 08:45:21;;;;;;;;;;;;;;;;;;4942440;28;20367;-77
2023/06/03 08:48:07;;;;;;;;;;;;;;;;;;4941099;28;20717;-77
2023/06/03 08:50:54;;;;;;;;;;;;;;;;;;4943404;28;19981;-78
2023/06/03 08:53:40;;;;;;;;;;;;;;;;;;4938807;28;20530;-78
2023/06/03 08:56:27;;;;;;;;;;;;;;;;;;4939033;28;19918;-77
2023/06/03 08:59:13;;;;;;;;;;;;;;;;;;4941419;28;19922;-77
2023/06/03 09:02:00;;;;;;;;;;;;;;;;;;4935608;28;19918;-77
2023/06/03 09:04:46;;;;;;;;;;;;;;;;;;4941520;29;19974;-77
2023/06/03 09:07:33;;;;;;;;;;;;;;;;;;4938538;28;19923;-77
2023/06/03 09:10:22;;;;;;;;;;;;;;;;;;4943307;28;19933;-77
2023/06/03 09:13:08;;;;;;;;;;;;;;;;;;4950699;28;19919;-77
2023/06/03 09:15:55;;;;;;;;;;;;;;;;;;4945261;29;19922;-77
2023/06/03 09:18:41;;;;;;;;;;;;;;;;;;4944576;28;20483;-77
2023/06/03 09:21:28;;;;;;;;;;;;;;;;;;4933547;28;19925;-77
2023/06/03 09:24:14;;;;;;;;;;;;;;;;;;4938594;28;20503;-78
2023/06/03 09:27:01;;;;;;;;;;;;;;;;;;4939375;29;19933;-77
2023/06/03 09:29:47;;;;;;;;;;;;;;;;;;4945248;28;19960;-78
2023/06/03 09:32:34;;;;;;;;;;;;;;;;;;4939189;29;19928;-78
2023/06/03 09:35:20;;;;;;;;;;;;;;;;;;4941137;29;19926;-78
2023/06/03 09:38:07;;;;;;;;;;;;;;;;;;4943483;29;19922;-78
2023/06/03 09:40:53;;;;;;;;;;;;;;;;;;4936770;28;19922;-78
2023/06/03 09:43:40;;;;;;;;;;;;;;;;;;4943175;28;20374;-78
2023/06/03 09:46:26;;;;;;;;;;;;;;;;;;4940163;28;19923;-78
2023/06/03 09:49:13;;;;;;;;;;;;;;;;;;4937773;29;20298;-78
2023/06/03 09:51:59;;;;;;;;;;;;;;;;;;4939734;28;19947;-78
2023/06/03 09:54:46;;;;;;;;;;;;;;;;;;4933024;28;19937;-78
2023/06/03 09:57:32;;;;;;;;;;;;;;;;;;4941151;28;19922;-76
2023/06/03 10:00:19;;;;;;;;;;;;;;;;;;4941065;29;19922;-76
2023/06/03 10:03:06;;;;;;;;;;;;;;;;;;4941184;29;19923;-76
2023/06/03 10:05:53;;;;;;;;;;;;;;;;;;4945980;29;19924;-76
2023/06/03 10:08:40;;;;;;;;;;;;;;;;;;4930752;28;20278;-77
2023/06/03 10:11:26;;;;;;;;;;;;;;;;;;4932781;29;19926;-76
2023/06/03 10:14:14;;;;;;;;;;;;;;;;;;4939419;29;19924;-77
2023/06/03 10:17:01;;;;;;;;;;;;;;;;;;4938631;28;20287;-78
2023/06/03 10:19:47;;;;;;;;;;;;;;;;;;4938781;28;19962;-78
2023/06/03 10:22:34;;;;;;;;;;;;;;;;;;4934508;29;19926;-79
2023/06/03 10:25:20;;;;;;;;;;;;;;;;;;4936895;28;19922;-77
2023/06/03 10:28:07;;;;;;;;;;;;;;;;;;4934745;28;19923;-81
2023/06/03 10:30:55;;;;;;;;;;;;;;;;;;4942839;29;19934;-79
2023/06/03 10:33:41;;;;;;;;;;;;;;;;;;4948293;28;19922;-78
2023/06/03 10:36:28;;;;;;;;;;;;;;;;;;4948035;28;19918;-79
2023/06/03 10:39:14;;;;;;;;;;;;;;;;;;4940427;28;19937;-79
2023/06/03 10:42:01;;;;;;;;;;;;;;;;;;4945747;28;20491;-79
2023/06/03 10:44:47;;;;;;;;;;;;;;;;;;4939868;28;19958;-78
2023/06/03 10:47:34;;;;;;;;;;;;;;;;;;4940507;28;19937;-79
2023/06/03 10:50:20;;;;;;;;;;;;;;;;;;4950619;28;19938;-79
2023/06/03 10:53:07;;;;;;;;;;;;;;;;;;4941550;28;19925;-79
2023/06/03 10:55:53;;;;;;;;;;;;;;;;;;4937965;29;19919;-79
2023/06/03 10:58:41;;;;;;;;;;;;;;;;;;4936204;29;19930;-78
2023/06/03 11:01:27;;;;;;;;;;;;;;;;;;4939182;28;19914;-79
2023/06/03 11:04:14;;;;;;;;;;;;;;;;;;4944631;29;19954;-79
2023/06/03 11:07:02;;;;;;;;;;;;;;;;;;4943525;29;20452;-78
2023/06/03 11:09:49;;;;;;;;;;;;;;;;;;4943900;28;19926;-79
2023/06/03 11:12:35;;;;;;;;;;;;;;;;;;4939741;28;19923;-79
2023/06/03 11:15:21;;;;;;;;;;;;;;;;;;4941129;29;19922;-79
2023/06/03 11:18:08;;;;;;;;;;;;;;;;;;4946223;28;20437;-77
2023/06/03 11:20:54;;;;;;;;;;;;;;;;;;4945114;29;19927;-78
2023/06/03 11:23:41;;;;;;;;;;;;;;;;;;4939938;29;19962;-77
2023/06/03 11:26:27;;;;;;;;;;;;;;;;;;4938957;29;19937;-77
2023/06/03 11:29:14;;;;;;;;;;;;;;;;;;4937940;28;20298;-78
2023/06/03 11:32:01;;;;;;;;;;;;;;;;;;4937197;28;19922;-77
2023/06/03 11:34:47;;;;;;;;;;;;;;;;;;4935007;29;19919;-76
2023/06/03 11:37:34;;;;;;;;;;;;;;;;;;4940281;29;19929;-76
2023/06/03 11:40:20;;;;;;;;;;;;;;;;;;4935725;28;20421;-77
2023/06/03 11:43:07;;;;;;;;;;;;;;;;;;4932474;28;19987;-78
2023/06/03 11:45:53;;;;;;;;;;;;;;;;;;4941491;29;19923;-77
2023/06/03 11:48:40;;;;;;;;;;;;;;;;;;4936742;28;20453;-76
2023/06/03 11:51:26;;;;;;;;;;;;;;;;;;4935194;29;19931;-78
2023/06/03 11:54:13;;;;;;;;;;;;;;;;;;4945857;28;19927;-78
2023/06/03 11:57:00;;;;;;;;;;;;;;;;;;4931485;28;19922;-78
2023/06/03 11:59:48;;;;;;;;;;;;;;;;;;4942096;29;19919;-78
2023/06/03 12:02:35;;;;;;;;;;;;;;;;;;4939561;28;19949;-78
2023/06/03 12:05:22;;;;;;;;;;;;;;;;;;4938956;29;19918;-78
2023/06/03 12:08:08;;;;;;;;;;;;;;;;;;4927444;29;19923;-77
2023/06/03 12:10:55;;;;;;;;;;;;;;;;;;4935008;29;19941;-77
2023/06/03 12:13:41;;;;;;;;;;;;;;;;;;4941672;28;19919;-77
2023/06/03 12:16:28;;;;;;;;;;;;;;;;;;4938845;28;19922;-80
2023/06/03 12:19:14;;;;;;;;;;;;;;;;;;4945782;28;19960;-79
2023/06/03 12:22:01;;;;;;;;;;;;;;;;;;4938522;29;19915;-79
2023/06/03 12:24:48;;;;;;;;;;;;;;;;;;4934624;28;19926;-80
2023/06/03 12:27:34;;;;;;;;;;;;;;;;;;4939632;28;19941;-80
2023/06/03 12:30:21;;;;;;;;;;;;;;;;;;4944283;28;19935;-81
2023/06/03 12:33:09;;;;;;;;;;;;;;;;;;4936951;28;20299;-79
2023/06/03 12:35:56;;;;;;;;;;;;;;;;;;4937546;28;20435;-79
2023/06/03 12:38:42;;;;;;;;;;;;;;;;;;4940909;28;20257;-79
2023/06/03 12:41:29;;;;;;;;;;;;;;;;;;4936040;28;19918;-79
2023/06/03 12:44:15;;;;;;;;;;;;;;;;;;4935580;28;20494;-79
2023/06/03 12:47:02;;;;;;;;;;;;;;;;;;4935703;28;19930;-84
2023/06/03 12:49:48;;;;;;;;;;;;;;;;;;4936657;28;19937;-81
2023/06/03 12:52:36;;;;;;;;;;;;;;;;;;4939228;28;19957;-81
2023/06/03 12:55:23;;;;;;;;;;;;;;;;;;4941102;28;20294;-81
2023/06/03 12:58:09;;;;;;;;;;;;;;;;;;4943927;28;19933;-82
2023/06/03 13:00:56;;;;;;;;;;;;;;;;;;4937419;29;19918;-81
2023/06/03 13:03:42;;;;;;;;;;;;;;;;;;4942903;28;19923;-81
2023/06/03 13:06:29;;;;;;;;;;;;;;;;;;4946613;29;19915;-80
2023/06/03 13:09:15;;;;;;;;;;;;;;;;;;4945736;28;19922;-77
2023/06/03 13:12:02;;;;;;;;;;;;;;;;;;4939727;28;20338;-78
2023/06/03 13:14:49;;;;;;;;;;;;;;;;;;4944890;28;19922;-79
2023/06/03 13:17:35;;;;;;;;;;;;;;;;;;4935557;28;19930;-78
2023/06/03 13:20:22;;;;;;;;;;;;;;;;;;4936286;28;19945;-75
2023/06/03 13:23:08;;;;;;;;;;;;;;;;;;4942753;29;19969;-75
2023/06/03 13:25:55;;;;;;;;;;;;;;;;;;4947264;29;19941;-81
2023/06/03 13:28:42;;;;;;;;;;;;;;;;;;4940696;28;19923;-78
2023/06/03 13:31:28;;;;;;;;;;;;;;;;;;4951831;28;19934;-79
2023/06/03 13:34:15;;;;;;;;;;;;;;;;;;4928989;29;19945;-79
2023/06/03 13:37:02;;;;;;;;;;;;;;;;;;4943663;29;19926;-78
2023/06/03 13:39:48;;;;;;;;;;;;;;;;;;4936387;28;19919;-80
2023/06/03 13:42:35;;;;;;;;;;;;;;;;;;4942773;28;19929;-79
2023/06/03 13:45:21;;;;;;;;;;;;;;;;;;4940172;28;19922;-78
2023/06/03 13:48:08;;;;;;;;;;;;;;;;;;4942132;29;19922;-76
2023/06/03 13:50:55;;;;;;;;;;;;;;;;;;4940148;29;19937;-76
2023/06/03 13:53:42;;;;;;;;;;;;;;;;;;4939217;28;19923;-76
2023/06/03 13:56:28;;;;;;;;;;;;;;;;;;4937190;29;19926;-77
2023/06/03 13:59:15;;;;;;;;;;;;;;;;;;4937144;29;19922;-76
2023/06/03 14:02:01;;;;;;;;;;;;;;;;;;4937012;28;20523;-76
2023/06/03 14:04:48;;;;;;;;;;;;;;;;;;4934113;28;19923;-77
2023/06/03 14:07:34;;;;;;;;;;;;;;;;;;4937203;28;19932;-77
2023/06/03 14:10:21;;;;;;;;;;;;;;;;;;4940222;29;19961;-75
2023/06/03 14:13:07;;;;;;;;;;;;;;;;;;4941870;28;19925;-75
2023/06/03 14:15:54;;;;;;;;;;;;;;;;;;4934195;28;19929;-77
2023/06/03 14:18:40;;;;;;;;;;;;;;;;;;4932768;29;20334;-77
2023/06/03 14:21:27;;;;;;;;;;;;;;;;;;4944563;28;19922;-76
2023/06/03 14:24:13;;;;;;;;;;;;;;;;;;4944165;29;20327;-76
2023/06/03 14:27:00;;;;;;;;;;;;;;;;;;4936066;29;19927;-76
2023/06/03 14:29:46;;;;;;;;;;;;;;;;;;4929826;28;19926;-76
2023/06/03 14:32:33;;;;;;;;;;;;;;;;;;4945070;28;19922;-75
2023/06/03 14:35:19;;;;;;;;;;;;;;;;;;4936469;29;19948;-76
2023/06/03 14:38:06;;;;;;;;;;;;;;;;;;4938708;29;19934;-76
2023/06/03 14:40:52;;;;;;;;;;;;;;;;;;4933571;28;19929;-75
2023/06/03 14:43:39;;;;;;;;;;;;;;;;;;4950966;28;19922;-76
2023/06/03 14:46:28;;;;;;;;;;;;;;;;;;4938807;28;19929;-76
2023/06/03 14:49:15;;;;;;;;;;;;;;;;;;4938549;29;19926;-76
2023/06/03 14:52:01;;;;;;;;;;;;;;;;;;4937043;28;19937;-74
2023/06/03 14:54:48;;;;;;;;;;;;;;;;;;4940364;28;19922;-74
2023/06/03 14:57:34;;;;;;;;;;;;;;;;;;4938718;28;19937;-75
2023/06/03 15:00:21;;;;;;;;;;;;;;;;;;4934110;29;20390;-77
2023/06/03 15:03:08;;;;;;;;;;;;;;;;;;4935957;29;20694;-75
2023/06/03 15:05:54;;;;;;;;;;;;;;;;;;4938743;28;19923;-77
2023/06/03 15:08:41;;;;;;;;;;;;;;;;;;4937463;29;20363;-77
2023/06/03 15:11:27;;;;;;;;;;;;;;;;;;4933976;28;19941;-78
2023/06/03 15:14:14;;;;;;;;;;;;;;;;;;4938524;28;19924;-76
2023/06/03 15:17:00;;;;;;;;;;;;;;;;;;4935075;28;20374;-77
2023/06/03 15:19:47;;;;;;;;;;;;;;;;;;4919476;29;19923;-74
2023/06/03 15:22:33;;;;;;;;;;;;;;;;;;4941092;29;19919;-77
2023/06/03 15:25:20;;;;;;;;;;;;;;;;;;4942729;29;19922;-76
2023/06/03 15:28:09;;;;;;;;;;;;;;;;;;4932185;29;19919;-76
2023/06/03 15:30:56;;;;;;;;;;;;;;;;;;4933825;28;20381;-76
2023/06/03 15:33:42;;;;;;;;;;;;;;;;;;4936622;28;20603;-77
2023/06/03 15:36:29;;;;;;;;;;;;;;;;;;4946589;28;19929;-80
2023/06/03 15:39:16;;;;;;;;;;;;;;;;;;4930174;28;19930;-78
2023/06/03 15:42:03;;;;;;;;;;;;;;;;;;4928906;28;19930;-79
2023/06/03 15:44:49;;;;;;;;;;;;;;;;;;4923471;29;19914;-77
2023/06/03 15:47:36;;;;;;;;;;;;;;;;;;4935611;29;19922;-76
2023/06/03 15:50:22;;;;;;;;;;;;;;;;;;4935811;28;19935;-77
2023/06/03 15:53:10;;;;;;;;;;;;;;;;;;4943205;28;19922;-77
2023/06/03 15:55:56;;;;;;;;;;;;;;;;;;4932275;29;19925;-77
2023/06/03 15:58:43;;;;;;;;;;;;;;;;;;4929128;29;19929;-77
2023/06/03 16:01:29;;;;;;;;;;;;;;;;;;4942351;29;19922;-77
2023/06/03 16:04:16;;;;;;;;;;;;;;;;;;4939555;29;19929;-76
2023/06/03 16:07:03;;;;;;;;;;;;;;;;;;4940767;28;19926;-76
2023/06/03 16:09:49;;;;;;;;;;;;;;;;;;4940309;29;19938;-75
2023/06/03 16:12:36;;;;;;;;;;;;;;;;;;4940576;29;20393;-78
2023/06/03 16:15:22;;;;;;;;;;;;;;;;;;4932977;29;19926;-79
2023/06/03 16:18:09;;;;;;;;;;;;;;;;;;4940484;29;19923;-78
2023/06/03 16:20:55;;;;;;;;;;;;;;;;;;4946159;28;19926;-76
2023/06/03 16:23:42;;;;;;;;;;;;;;;;;;4939009;29;19918;-76
2023/06/03 16:26:28;;;;;;;;;;;;;;;;;;4939508;29;19926;-76
2023/06/03 16:29:15;;;;;;;;;;;;;;;;;;4942593;29;19919;-76
2023/06/03 16:32:01;;;;;;;;;;;;;;;;;;4941990;28;19926;-76
2023/06/03 16:34:48;;;;;;;;;;;;;;;;;;4951010;28;19922;-76
2023/06/03 16:37:34;;;;;;;;;;;;;;;;;;4938481;29;19922;-75
2023/06/03 16:40:21;;;;;;;;;;;;;;;;;;4945292;28;20267;-76
2023/06/03 16:43:07;;;;;;;;;;;;;;;;;;4938404;28;19922;-76
2023/06/03 16:45:54;;;;;;;;;;;;;;;;;;4932863;28;19915;-76
2023/06/03 16:48:40;;;;;;;;;;;;;;;;;;4937519;29;19927;-76
2023/06/03 16:51:28;;;;;;;;;;;;;;;;;;4942713;28;19931;-76
2023/06/03 16:54:14;;;;;;;;;;;;;;;;;;4938831;28;19922;-75
2023/06/03 16:57:01;;;;;;;;;;;;;;;;;;4936101;28;19933;-75
2023/06/03 16:59:48;;;;;;;;;;;;;;;;;;4941436;28;19919;-75
2023/06/03 17:02:34;;;;;;;;;;;;;;;;;;4935657;29;20378;-75
2023/06/03 17:05:21;;;;;;;;;;;;;;;;;;4935170;28;19923;-74
2023/06/03 17:08:07;;;;;;;;;;;;;;;;;;4942018;28;20394;-76
2023/06/03 17:10:54;;;;;;;;;;;;;;;;;;4948408;28;19934;-76
2023/06/03 17:13:40;;;;;;;;;;;;;;;;;;4929332;28;19985;-76
2023/06/03 17:16:27;;;;;;;;;;;;;;;;;;4935567;28;19923;-76
2023/06/03 17:19:13;;;;;;;;;;;;;;;;;;4940889;29;19922;-77
2023/06/03 17:22:00;;;;;;;;;;;;;;;;;;4936139;29;19923;-76
2023/06/03 17:24:46;;;;;;;;;;;;;;;;;;4937697;28;19930;-77
2023/06/03 17:27:33;;;;;;;;;;;;;;;;;;4940297;29;19931;-76
2023/06/03 17:30:19;;;;;;;;;;;;;;;;;;4938115;28;19934;-77
2023/06/03 17:33:06;;;;;;;;;;;;;;;;;;4938368;28;20426;-79
2023/06/03 17:35:52;;;;;;;;;;;;;;;;;;4937038;29;19929;-77
2023/06/03 17:38:42;;;;;;;;;;;;;;;;;;4930081;28;20272;-77
2023/06/03 17:41:28;;;;;;;;;;;;;;;;;;4933977;28;20286;-77
2023/06/03 17:44:15;;;;;;;;;;;;;;;;;;4938034;28;19930;-76
2023/06/03 17:47:02;;;;;;;;;;;;;;;;;;4939912;28;20101;-79
2023/06/03 17:49:50;;;;;;;;;;;;;;;;;;4947915;28;20286;-79
2023/06/03 17:52:37;;;;;;;;;;;;;;;;;;4952737;28;21969;-76
2023/06/03 17:55:24;;;;;;;;;;;;;;;;;;4938627;28;19922;-77
2023/06/03 17:58:10;;;;;;;;;;;;;;;;;;4936271;28;19919;-77
2023/06/03 18:00:57;;;;;;;;;;;;;;;;;;4941728;29;19922;-79
2023/06/03 18:03:43;;;;;;;;;;;;;;;;;;4937355;29;20375;-79
2023/06/03 18:06:30;;;;;;;;;;;;;;;;;;4942225;28;19918;-79
2023/06/03 18:09:17;;;;;;;;;;;;;;;;;;4941793;29;19933;-79
2023/06/03 18:12:03;;;;;;;;;;;;;;;;;;4938300;29;19930;-78
2023/06/03 18:14:49;;;;;;;;;;;;;;;;;;4941851;29;19925;-78
2023/06/03 18:17:37;;;;;;;;;;;;;;;;;;4937218;28;20374;-78
2023/06/03 18:20:23;;;;;;;;;;;;;;;;;;4940306;29;20298;-79
2023/06/03 18:23:10;;;;;;;;;;;;;;;;;;4931615;28;19919;-76
2023/06/03 18:25:56;;;;;;;;;;;;;;;;;;4940276;29;20374;-77
2023/06/03 18:28:43;;;;;;;;;;;;;;;;;;4943679;28;20007;-77
2023/06/03 18:31:29;;;;;;;;;;;;;;;;;;4942565;28;19927;-77
2023/06/03 18:34:19;;;;;;;;;;;;;;;;;;4929558;29;19945;-76
2023/06/03 18:37:05;;;;;;;;;;;;;;;;;;4939197;29;19919;-76
2023/06/03 18:39:52;;;;;;;;;;;;;;;;;;4932635;28;19929;-77
2023/06/03 18:42:38;;;;;;;;;;;;;;;;;;4944693;28;19953;-79
2023/06/03 18:45:25;;;;;;;;;;;;;;;;;;4932212;28;20294;-79
2023/06/03 18:48:11;;;;;;;;;;;;;;;;;;4941186;29;19933;-79
2023/06/03 18:50:58;;;;;;;;;;;;;;;;;;4941429;29;20297;-80
2023/06/03 18:53:44;;;;;;;;;;;;;;;;;;4940118;28;19922;-78
2023/06/03 18:56:31;;;;;;;;;;;;;;;;;;4934642;28;19918;-77
2023/06/03 18:59:17;;;;;;;;;;;;;;;;;;4939687;29;19929;-79